Time;durP1;ratioP1;P1;durP2;ratioP2;P2;SDS_P1;SDS_P2;PMS_P1;PMS_P2;Temp;Humidity;BMP_temperature;BMP_pressure;BME280_temperature;BME280_humidity;BME280_pressure;Samples;Min_cycle;Max_cycle;Signal;HPM_P1;HPM_P2
2023/06/10 00:01:01;;;;;;;13.95;9.27;;;;;;;23.72;48.13;100201.34;5039642;28;20255;-76
2023/06/10 00:03:28;;;;;;;10.43;8.02;;;;;;;23.71;48.24;100205.94;5044415;28;20891;-79
2023/06/10 00:05:57;;;;;;;12.65;7.72;;;;;;;23.70;48.22;100208.88;5039575;28;20242;-76
2023/06/10 00:08:24;;;;;;;10.68;7.90;;;;;;;23.69;48.03;100208.06;5040307;28;20200;-77
2023/06/10 00:10:52;;;;;;;10.85;8.07;;;;;;;23.68;47.85;100211.00;5047352;28;20682;-75
2023/06/10 00:13:21;;;;;;;9.02;8.13;;;;;;;23.66;47.85;100213.16;5044996;28;20208;-75
2023/06/10 00:15:49;;;;;;;12.57;8.07;;;;;;;23.62;47.97;100205.50;5046208;28;20231;-76
2023/06/10 00:18:17;;;;;;;12.75;8.82;;;;;;;23.60;48.00;100206.78;5047695;28;20681;-75
2023/06/10 00:20:45;;;;;;;9.40;7.50;;;;;;;23.55;48.04;100202.09;5049521;28;20814;-77
2023/06/10 00:23:13;;;;;;;9.30;7.82;;;;;;;23.53;48.00;100204.22;5048593;28;20315;-74
2023/06/10 00:25:41;;;;;;;11.43;7.78;;;;;;;23.52;48.03;100208.00;5046701;28;20274;-74
2023/06/10 00:28:09;;;;;;;9.75;8.15;;;;;;;23.50;47.81;100199.28;5041113;28;20748;-76
2023/06/10 00:30:38;;;;;;;10.43;8.27;;;;;;;23.47;48.05;100191.63;5042367;28;20201;-76
2023/06/10 00:33:05;;;;;;;9.50;8.13;;;;;;;23.44;47.98;100196.69;5037920;28;20240;-76
2023/06/10 00:35:33;;;;;;;9.87;8.27;;;;;;;23.42;48.26;100198.78;5051637;28;20208;-73
2023/06/10 00:38:01;;;;;;;11.35;8.23;;;;;;;23.37;48.26;100199.53;5057970;28;20208;-74
2023/06/10 00:40:29;;;;;;;9.73;8.27;;;;;;;23.36;48.30;100200.59;5056164;28;20442;-74
2023/06/10 00:42:57;;;;;;;14.63;8.85;;;;;;;23.33;48.22;100209.16;5058995;28;20208;-76
2023/06/10 00:45:24;;;;;;;13.88;8.15;;;;;;;23.32;48.29;100206.69;5047397;28;20239;-74
2023/06/10 00:47:54;;;;;;;9.50;7.77;;;;;;;23.31;48.20;100208.56;5045819;28;20211;-77
2023/06/10 00:50:22;;;;;;;10.03;8.20;;;;;;;23.27;48.27;100204.72;5043093;28;20254;-76
2023/06/10 00:52:51;;;;;;;12.80;8.43;;;;;;;23.23;48.44;100211.66;5043849;28;20209;-74
2023/06/10 00:55:23;;;;;;;10.95;8.18;;;;;;;23.20;48.37;100214.84;5038343;28;21025;-76
2023/06/10 00:57:52;;;;;;;9.57;8.13;;;;;;;23.19;48.40;100215.91;5038683;28;20277;-75
2023/06/10 01:00:20;;;;;;;10.80;8.03;;;;;;;23.16;48.28;100219.88;5039478;28;20208;-75
2023/06/10 01:02:49;;;;;;;9.17;7.87;;;;;;;23.16;48.67;100219.06;5038656;28;20860;-75
2023/06/10 01:05:19;;;;;;;11.57;9.37;;;;;;;23.15;48.46;100220.94;5039256;28;20228;-76
2023/06/10 01:08:02;;;;;;;10.20;8.30;;;;;;;23.17;48.40;100215.31;5041482;28;20204;-76
2023/06/10 01:10:35;;;;;;;10.37;8.43;;;;;;;23.11;48.35;100217.09;5041874;28;20201;-75
2023/06/10 01:13:04;;;;;;;13.23;9.07;;;;;;;23.10;48.59;100220.03;5044505;28;20704;-74
2023/06/10 01:15:32;;;;;;;10.10;8.40;;;;;;;23.07;48.77;100220.47;5048333;28;20281;-74
2023/06/10 01:18:02;;;;;;;11.20;9.03;;;;;;;23.04;48.86;100224.50;5049975;28;20204;-73
2023/06/10 01:20:33;;;;;;;12.33;8.87;;;;;;;23.02;48.78;100223.09;5052966;28;20214;-73
2023/06/10 01:23:03;;;;;;;9.70;8.40;;;;;;;23.00;48.77;100227.88;5053076;28;20259;-73
2023/06/10 01:25:32;;;;;;;9.73;8.13;;;;;;;22.97;48.94;100225.66;5046847;28;20204;-76
2023/06/10 01:28:06;;;;;;;11.13;8.77;;;;;;;22.97;48.68;100225.66;5045234;28;20339;-75
2023/06/10 01:30:43;;;;;;;9.60;8.03;;;;;;;22.93;49.06;100224.50;5042495;28;20207;-76
2023/06/10 01:33:13;;;;;;;11.57;8.47;;;;;;;22.87;49.05;100221.66;5043306;28;20209;-76
2023/06/10 01:35:44;;;;;;;9.33;8.27;;;;;;;22.85;48.96;100222.97;5044263;28;20211;-75
2023/06/10 01:38:15;;;;;;;10.00;8.83;;;;;;;22.83;49.17;100223.19;5044640;28;20319;-76
2023/06/10 01:40:43;;;;;;;10.77;8.00;;;;;;;22.82;49.29;100221.53;5046269;28;20379;-76
2023/06/10 01:43:11;;;;;;;12.80;8.10;;;;;;;22.78;49.50;100223.06;5043635;28;20203;-76
2023/06/10 01:45:39;;;;;;;12.87;8.77;;;;;;;22.76;49.49;100225.19;5042090;28;20256;-73
2023/06/10 01:48:07;;;;;;;11.77;8.93;;;;;;;22.75;49.18;100228.13;5039919;28;20200;-75
2023/06/10 01:50:35;;;;;;;12.00;7.80;;;;;;;22.72;49.39;100223.97;5040344;28;20249;-74
2023/06/10 01:53:05;;;;;;;9.70;8.40;;;;;;;22.70;49.50;100219.84;5041961;28;20212;-76
2023/06/10 01:55:34;;;;;;;13.30;9.63;;;;;;;22.67;49.57;100221.16;5037792;28;20917;-76
2023/06/10 01:58:02;;;;;;;11.37;8.00;;;;;;;22.64;49.36;100227.00;5035817;28;20666;-73
2023/06/10 02:00:30;;;;;;;9.83;8.10;;;;;;;22.60;49.61;100223.13;5036907;28;20228;-77
2023/06/10 02:02:58;;;;;;;11.63;8.87;;;;;;;22.60;49.40;100225.84;5037628;28;20919;-76
2023/06/10 02:05:26;;;;;;;13.30;8.33;;;;;;;22.58;49.22;100217.13;5039600;28;20235;-76
2023/06/10 02:07:53;;;;;;;17.40;8.77;;;;;;;22.58;49.40;100222.53;5038283;28;20208;-72
2023/06/10 02:10:21;;;;;;;10.83;8.60;;;;;;;22.53;49.38;100220.53;5037608;28;20303;-73
2023/06/10 02:12:51;;;;;;;15.47;9.10;;;;;;;22.54;49.28;100229.44;5040198;28;20204;-72
2023/06/10 02:15:18;;;;;;;9.10;8.07;;;;;;;22.51;49.57;100224.53;5038852;28;20236;-75
2023/06/10 02:17:46;;;;;;;13.20;8.90;;;;;;;22.49;49.60;100226.63;5047833;28;20623;-77
2023/06/10 02:20:14;;;;;;;10.80;8.80;;;;;;;22.45;49.47;100228.13;5036470;28;20208;-77
2023/06/10 02:22:42;;;;;;;10.27;8.37;;;;;;;22.44;49.68;100226.50;5040608;28;20229;-74
2023/06/10 02:25:10;;;;;;;11.40;8.80;;;;;;;22.40;49.73;100228.84;5036726;28;20208;-74
2023/06/10 02:27:38;;;;;;;11.17;8.23;;;;;;;22.40;49.73;100230.72;5041133;28;20229;-73
2023/06/10 02:30:10;;;;;;;10.57;8.40;;;;;;;22.40;49.63;100230.72;5036912;28;20280;-77
2023/06/10 02:32:38;;;;;;;11.30;8.77;;;;;;;22.37;49.72;100237.41;5040236;28;20208;-75
2023/06/10 02:35:06;;;;;;;10.27;8.23;;;;;;;22.38;49.62;100235.53;5035922;28;20213;-76
2023/06/10 02:37:34;;;;;;;10.37;8.70;;;;;;;22.35;49.45;100230.56;5039202;28;20208;-74
2023/06/10 02:40:03;;;;;;;10.67;8.23;;;;;;;22.34;49.66;100235.16;5038417;28;20204;-74
2023/06/10 02:42:31;;;;;;;15.63;8.53;;;;;;;22.34;49.82;100240.56;5036715;28;20207;-74
2023/06/10 02:44:59;;;;;;;11.03;8.40;;;;;;;22.28;49.64;100243.34;5037306;28;20652;-75
2023/06/10 02:47:28;;;;;;;10.33;7.57;;;;;;;22.30;49.73;100236.69;5043517;28;20339;-76
2023/06/10 02:49:56;;;;;;;13.53;8.53;;;;;;;22.30;49.43;100235.84;5042638;28;21081;-76
2023/06/10 02:52:23;;;;;;;12.53;8.03;;;;;;;22.30;49.78;100236.69;5047088;28;20205;-76
2023/06/10 02:54:51;;;;;;;10.20;8.30;;;;;;;22.30;49.46;100241.25;5044859;28;20228;-76
2023/06/10 02:57:19;;;;;;;12.37;8.40;;;;;;;22.28;49.81;100243.34;5044857;28;20548;-74
2023/06/10 02:59:47;;;;;;;9.93;8.67;;;;;;;22.27;49.52;100242.53;5043809;28;20200;-76
2023/06/10 03:02:15;;;;;;;9.50;7.97;;;;;;;22.23;49.84;100240.53;5048596;28;20212;-76
2023/06/10 03:04:44;;;;;;;12.13;8.30;;;;;;;22.21;49.95;100238.06;5044707;28;20858;-76
2023/06/10 03:07:12;;;;;;;9.40;8.30;;;;;;;22.20;49.78;100241.81;5043097;28;20323;-77
2023/06/10 03:09:40;;;;;;;11.70;8.77;;;;;;;22.20;49.78;100246.38;5043617;28;20236;-74
2023/06/10 03:12:11;;;;;;;11.50;8.40;;;;;;;22.20;50.13;100246.38;5044074;28;20288;-76
2023/06/10 03:14:39;;;;;;;13.70;8.70;;;;;;;22.19;49.89;100244.72;5043572;28;20205;-76
2023/06/10 03:17:08;;;;;;;13.87;8.90;;;;;;;22.17;50.08;100236.03;5044623;28;20261;-76
2023/06/10 03:19:37;;;;;;;10.20;8.63;;;;;;;22.13;50.16;100241.09;5040801;28;20265;-73
2023/06/10 03:22:11;;;;;;;9.53;8.10;;;;;;;22.09;50.21;100240.72;5044373;28;20316;-76
2023/06/10 03:24:39;;;;;;;10.30;8.27;;;;;;;22.09;50.19;100245.28;5041894;28;20270;-75
2023/06/10 03:27:09;;;;;;;9.70;7.77;;;;;;;22.08;50.37;100244.47;5044875;28;20271;-72
2023/06/10 03:29:37;;;;;;;10.03;7.87;;;;;;;22.08;50.66;100244.47;5044825;28;20204;-73
2023/06/10 03:32:05;;;;;;;11.70;7.87;;;;;;;22.08;50.17;100243.63;5039827;28;20995;-75
2023/06/10 03:34:33;;;;;;;13.50;8.73;;;;;;;22.07;50.46;100248.25;5039698;28;20211;-75
2023/06/10 03:37:01;;;;;;;12.20;9.03;;;;;;;22.05;50.49;100252.22;5042948;28;21113;-75
2023/06/10 03:39:30;;;;;;;11.37;8.57;;;;;;;22.04;50.65;100245.97;5041510;28;20613;-75
2023/06/10 03:41:58;;;;;;;12.07;8.37;;;;;;;22.00;50.55;100252.88;5044680;28;20242;-76
2023/06/10 03:44:27;;;;;;;13.97;8.90;;;;;;;22.01;50.75;100249.13;5043090;28;20216;-76
2023/06/10 03:46:56;;;;;;;12.80;8.73;;;;;;;22.02;50.51;100256.19;5055866;28;20293;-73
2023/06/10 03:49:26;;;;;;;12.73;8.20;;;;;;;22.02;50.71;100255.34;5061369;28;20360;-74
2023/06/10 03:51:54;;;;;;;11.07;8.73;;;;;;;22.01;50.55;100268.03;5059817;28;20231;-75
2023/06/10 03:54:23;;;;;;;12.70;9.40;;;;;;;22.01;50.65;100262.63;5060924;28;20212;-75
2023/06/10 03:56:52;;;;;;;11.33;7.67;;;;;;;21.98;50.89;100264.97;5049779;28;20204;-76
2023/06/10 03:59:20;;;;;;;11.77;8.03;;;;;;;21.97;50.91;100272.25;5053239;28;20220;-75
2023/06/10 04:01:47;;;;;;;13.23;9.03;;;;;;;21.97;51.31;100258.75;5042296;28;20231;-75
2023/06/10 04:04:16;;;;;;;9.67;7.80;;;;;;;21.97;51.15;100264.16;5041527;28;20212;-76
2023/06/10 04:06:44;;;;;;;10.03;8.40;;;;;;;21.96;51.09;100267.88;5041816;28;20286;-76
2023/06/10 04:09:12;;;;;;;9.83;8.30;;;;;;;21.96;51.53;100265.16;5042799;28;21120;-77
2023/06/10 04:11:40;;;;;;;11.17;8.07;;;;;;;21.92;51.27;100272.06;5043798;28;20212;-74
2023/06/10 04:14:11;;;;;;;11.10;7.97;;;;;;;21.92;51.37;100266.66;5043448;28;20271;-74
2023/06/10 04:16:39;;;;;;;12.23;8.73;;;;;;;21.94;51.47;100269.97;5044791;28;20291;-76
2023/06/10 04:19:07;;;;;;;10.57;8.20;;;;;;;21.95;51.30;100274.31;5044803;28;20215;-75
2023/06/10 04:21:35;;;;;;;9.57;8.30;;;;;;;21.96;51.36;100267.03;5046213;28;20227;-75
2023/06/10 04:24:04;;;;;;;10.47;8.13;;;;;;;21.96;51.53;100275.97;5041065;28;20247;-74
2023/06/10 04:26:33;;;;;;;12.40;9.03;;;;;;;21.95;52.32;100277.00;5036459;28;20314;-75
2023/06/10 04:29:01;;;;;;;10.27;8.43;;;;;;;21.81;52.32;100283.63;5040031;28;20350;-77
2023/06/10 04:31:32;;;;;;;11.43;8.70;;;;;;;21.76;52.35;100284.28;5034853;28;20310;-77
2023/06/10 04:34:00;;;;;;;11.10;8.27;;;;;;;21.81;52.05;100280.94;5037497;28;20205;-77
2023/06/10 04:36:29;;;;;;;10.40;8.50;;;;;;;21.77;52.51;100285.13;5037044;28;20270;-78
2023/06/10 04:38:57;;;;;;;11.17;8.17;;;;;;;21.74;52.92;100285.56;5034955;28;20208;-73
2023/06/10 04:41:25;;;;;;;11.07;8.27;;;;;;;21.73;53.03;100287.44;5035655;28;20200;-77
2023/06/10 04:43:53;;;;;;;12.77;8.20;;;;;;;21.72;52.87;100285.00;5038105;28;20204;-77
2023/06/10 04:46:21;;;;;;;10.50;8.33;;;;;;;21.76;52.55;100289.69;5033457;28;22006;-74
2023/06/10 04:48:50;;;;;;;11.17;8.20;;;;;;;21.81;52.86;100283.63;5040513;28;20241;-75
2023/06/10 04:51:19;;;;;;;10.27;8.77;;;;;;;21.86;52.04;100286.47;5037534;28;20215;-76
2023/06/10 04:53:47;;;;;;;13.27;9.00;;;;;;;21.91;52.46;100289.28;5037027;28;21033;-77
2023/06/10 04:56:16;;;;;;;11.80;9.00;;;;;;;21.92;52.75;100285.56;5036697;28;20212;-75
2023/06/10 04:58:43;;;;;;;12.70;9.37;;;;;;;21.96;52.12;100289.47;5041564;28;20226;-76
2023/06/10 05:01:11;;;;;;;12.90;9.40;;;;;;;21.97;52.36;100291.16;5050993;28;20205;-73
2023/06/10 05:03:39;;;;;;;13.40;9.70;;;;;;;21.96;52.28;100289.47;5052681;28;20731;-74
2023/06/10 05:06:08;;;;;;;16.70;11.00;;;;;;;22.01;52.39;100297.72;5047916;28;20200;-75
2023/06/10 05:08:36;;;;;;;11.37;9.43;;;;;;;22.04;52.68;100291.88;5052177;28;20796;-73
2023/06/10 05:11:04;;;;;;;14.93;9.60;;;;;;;22.03;52.52;100297.50;5054637;28;20243;-76
2023/06/10 05:13:32;;;;;;;10.50;8.67;;;;;;;22.04;52.09;100286.47;5035724;28;20204;-74
2023/06/10 05:16:00;;;;;;;14.53;9.30;;;;;;;22.11;52.16;100292.63;5038913;28;20208;-75
2023/06/10 05:18:28;;;;;;;12.53;9.07;;;;;;;22.14;52.08;100291.34;5039798;28;20219;-74
2023/06/10 05:20:55;;;;;;;12.20;9.23;;;;;;;22.11;52.88;100289.91;5039275;28;20204;-75
2023/06/10 05:23:25;;;;;;;15.23;8.77;;;;;;;22.12;52.38;100288.88;5038555;28;20235;-76
2023/06/10 05:25:52;;;;;;;15.97;8.93;;;;;;;22.11;52.46;100289.91;5039020;28;20269;-78
2023/06/10 05:28:20;;;;;;;14.80;8.53;;;;;;;22.16;52.38;100299.22;5035623;28;21215;-73
2023/06/10 05:30:48;;;;;;;12.07;8.40;;;;;;;22.20;52.16;100295.00;5033812;28;20914;-77
2023/06/10 05:33:16;;;;;;;13.23;8.43;;;;;;;22.25;51.74;100298.69;5042416;28;20966;-78
2023/06/10 05:35:43;;;;;;;11.07;8.50;;;;;;;22.28;51.81;100291.97;5036596;28;20643;-74
2023/06/10 05:38:11;;;;;;;13.13;8.00;;;;;;;22.33;51.81;100292.97;5037295;28;20324;-76
2023/06/10 05:40:40;;;;;;;10.87;8.60;;;;;;;22.32;51.53;100293.19;5040984;28;20208;-76
2023/06/10 05:43:09;;;;;;;12.07;7.80;;;;;;;22.39;51.49;100293.91;5038888;28;20216;-76
2023/06/10 05:45:37;;;;;;;10.33;8.40;;;;;;;22.44;51.99;100296.72;5039067;28;20208;-73
2023/06/10 05:48:06;;;;;;;9.63;7.43;;;;;;;22.46;51.62;100295.47;5035978;28;20328;-75
2023/06/10 05:50:38;;;;;;;13.10;8.20;;;;;;;22.48;51.42;100300.63;5036144;28;20215;-77
2023/06/10 05:53:08;;;;;;;8.57;7.50;;;;;;;22.53;51.52;100300.75;5039160;28;20254;-76
2023/06/10 05:55:35;;;;;;;11.23;7.67;;;;;;;22.55;51.54;100298.66;5038959;28;20205;-76
2023/06/10 05:58:05;;;;;;;11.87;8.40;;;;;;;22.60;51.27;100312.31;5043694;28;20239;-75
2023/06/10 06:00:32;;;;;;;10.43;7.60;;;;;;;22.64;51.79;100310.78;5041370;28;20208;-77
2023/06/10 06:03:03;;;;;;;11.37;8.37;;;;;;;22.66;51.22;100315.97;5039329;28;20209;-65
2023/06/10 06:05:34;;;;;;;9.97;7.70;;;;;;;22.73;51.46;100322.09;5028358;28;20297;-64
2023/06/10 06:08:03;;;;;;;9.70;7.10;;;;;;;22.76;51.24;100313.56;5029397;28;20324;-63
2023/06/10 06:10:31;;;;;;;11.73;7.73;;;;;;;22.80;51.25;100306.63;5030309;28;20650;-66
2023/06/10 06:12:59;;;;;;;8.77;6.90;;;;;;;22.84;51.01;100319.47;5034957;28;20234;-64
2023/06/10 06:15:28;;;;;;;12.87;7.87;;;;;;;22.92;51.75;100322.88;5028504;28;20207;-64
2023/06/10 06:17:56;;;;;;;13.53;8.10;;;;;;;22.91;51.43;100322.06;5028708;28;20335;-63
2023/06/10 06:20:24;;;;;;;11.47;8.17;;;;;;;22.94;51.19;100323.47;5031540;28;20212;-65
2023/06/10 06:22:52;;;;;;;12.52;7.88;;;;;;;23.01;51.15;100318.78;5036336;28;20250;-64
2023/06/10 06:25:20;;;;;;;11.05;7.90;;;;;;;23.05;50.55;100322.66;5031915;28;20235;-64
2023/06/10 06:27:48;;;;;;;13.27;7.67;;;;;;;23.12;51.08;100326.09;5033260;28;20797;-65
2023/06/10 06:30:16;;;;;;;10.38;8.20;;;;;;;23.11;51.11;100319.03;5033420;28;20204;-65
2023/06/10 06:32:45;;;;;;;14.32;8.30;;;;;;;23.11;51.11;100319.84;5035040;28;20302;-64
2023/06/10 06:35:12;;;;;;;10.93;7.65;;;;;;;23.18;50.87;100322.44;5033352;28;20211;-64
2023/06/10 06:37:40;;;;;;;12.13;8.05;;;;;;;23.19;50.38;100316.81;5033417;28;20214;-65
2023/06/10 06:40:09;;;;;;;11.40;7.80;;;;;;;23.23;51.14;100317.97;5033372;28;20295;-64
2023/06/10 06:42:37;;;;;;;12.38;7.70;;;;;;;23.27;51.14;100319.16;5033337;28;20209;-68
2023/06/10 06:45:06;;;;;;;15.95;7.72;;;;;;;23.31;50.91;100316.78;5032484;28;20216;-64
2023/06/10 06:47:34;;;;;;;11.15;7.88;;;;;;;23.36;50.73;100321.50;5036097;28;20679;-65
2023/06/10 06:50:03;;;;;;;16.23;8.07;;;;;;;23.39;50.54;100323.75;5036923;28;20474;-66
2023/06/10 06:52:31;;;;;;;20.27;8.77;;;;;;;23.44;50.85;100321.97;5035573;28;20981;-67
2023/06/10 06:54:59;;;;;;;13.25;7.95;;;;;;;23.51;51.04;100327.28;5036447;28;20223;-66
2023/06/10 06:57:26;;;;;;;21.65;8.23;;;;;;;23.54;50.90;100324.94;5036442;28;20216;-66
2023/06/10 06:59:54;;;;;;;15.95;8.10;;;;;;;23.65;50.30;100331.41;5036056;28;20563;-65
2023/06/10 07:02:22;;;;;;;12.70;7.72;;;;;;;23.72;50.20;100334.00;5036081;28;20208;-66
2023/06/10 07:04:50;;;;;;;12.10;8.63;;;;;;;23.78;49.46;100336.56;5035508;28;22125;-65
2023/06/10 07:07:19;;;;;;;9.82;7.95;;;;;;;23.88;48.88;100338.66;5037105;28;20314;-65
2023/06/10 07:09:47;;;;;;;13.63;8.32;;;;;;;23.97;49.69;100329.13;5036010;28;20727;-65
2023/06/10 07:12:15;;;;;;;11.68;7.45;;;;;;;24.01;49.47;100333.81;5035526;28;20213;-63
2023/06/10 07:14:43;;;;;;;13.43;7.45;;;;;;;23.99;50.01;100332.41;5037309;28;20211;-64
2023/06/10 07:17:11;;;;;;;10.40;8.10;;;;;;;23.99;49.69;100340.53;5033018;28;20243;-66
2023/06/10 07:19:39;;;;;;;13.52;7.60;;;;;;;23.97;49.79;100332.66;5034263;28;20208;-64
2023/06/10 07:22:07;;;;;;;9.52;7.70;;;;;;;24.03;49.82;100333.56;5034795;28;20248;-65
2023/06/10 07:24:36;;;;;;;11.98;7.38;;;;;;;24.09;49.96;100335.34;5034768;28;20256;-65
2023/06/10 07:27:05;;;;;;;13.23;7.03;;;;;;;24.12;49.31;100337.56;5035691;28;20631;-64
2023/06/10 07:29:33;;;;;;;11.82;7.63;;;;;;;24.23;49.57;100335.91;5037803;28;20228;-65
2023/06/10 07:32:01;;;;;;;11.75;7.72;;;;;;;24.28;49.52;100336.81;5036648;28;20809;-63
2023/06/10 07:34:28;;;;;;;8.85;7.18;;;;;;;24.36;49.39;100339.13;5037137;28;20208;-64
2023/06/10 07:36:56;;;;;;;9.73;7.00;;;;;;;24.42;49.56;100339.25;5035438;28;20237;-64
2023/06/10 07:39:24;;;;;;;9.57;7.40;;;;;;;24.48;49.47;100330.16;5038389;28;20248;-64
2023/06/10 07:41:55;;;;;;;8.27;6.80;;;;;;;24.54;48.69;100330.00;5034775;28;20259;-64
2023/06/10 07:44:23;;;;;;;8.57;7.20;;;;;;;24.59;48.20;100321.97;5036395;28;20322;-64
2023/06/10 07:46:51;;;;;;;10.38;6.93;;;;;;;24.68;47.88;100330.53;5037514;28;20955;-65
2023/06/10 07:49:19;;;;;;;10.05;6.28;;;;;;;24.74;47.31;100329.53;5035848;28;21025;-65
2023/06/10 07:51:47;;;;;;;14.48;6.45;;;;;;;24.80;47.04;100325.06;5036003;28;20211;-65
2023/06/10 07:54:14;;;;;;;9.07;6.93;;;;;;;24.84;46.87;100326.19;5039475;28;20223;-64
2023/06/10 07:56:44;;;;;;;10.52;7.55;;;;;;;24.91;46.51;100325.00;5038066;28;20204;-70
2023/06/10 07:59:14;;;;;;;8.23;6.50;;;;;;;24.97;46.42;100324.03;5038013;28;20366;-63
2023/06/10 08:01:42;;;;;;;8.02;6.45;;;;;;;25.03;46.58;100327.63;5035321;28;20200;-63
2023/06/10 08:04:10;;;;;;;8.55;6.53;;;;;;;25.18;45.38;100325.16;5037967;28;20596;-69
2023/06/10 08:06:38;;;;;;;9.93;6.70;;;;;;;25.22;45.49;100328.22;5036339;28;20208;-69
2023/06/10 08:09:06;;;;;;;8.18;6.13;;;;;;;25.26;45.91;100323.91;5036711;28;20574;-68
2023/06/10 08:11:34;;;;;;;7.97;6.00;;;;;;;25.32;46.20;100331.09;5036111;28;20300;-69
2023/06/10 08:14:02;;;;;;;8.07;6.93;;;;;;;25.42;46.05;100326.63;5035718;28;20321;-68
2023/06/10 08:16:31;;;;;;;7.80;6.35;;;;;;;25.50;46.09;100322.69;5035373;28;20732;-70
2023/06/10 08:18:59;;;;;;;6.85;5.72;;;;;;;25.58;45.29;100330.41;5037124;28;20228;-69
2023/06/10 08:21:28;;;;;;;8.75;6.20;;;;;;;25.65;45.26;100325.63;5034532;28;20293;-69
2023/06/10 08:23:56;;;;;;;14.10;6.75;;;;;;;25.72;45.28;100331.69;5035813;28;20243;-68
2023/06/10 08:26:24;;;;;;;9.85;6.55;;;;;;;25.82;45.50;100331.84;5035145;28;20242;-68
2023/06/10 08:28:52;;;;;;;9.60;6.80;;;;;;;25.91;45.38;100328.69;5034634;28;20244;-68
2023/06/10 08:31:20;;;;;;;10.05;6.00;;;;;;;25.94;44.54;100328.19;5034462;28;20212;-67
2023/06/10 08:33:49;;;;;;;7.70;6.22;;;;;;;26.05;43.79;100321.78;5032959;28;20259;-69
2023/06/10 08:36:17;;;;;;;10.23;6.85;;;;;;;26.14;43.84;100318.38;5033673;28;20204;-69
2023/06/10 08:38:45;;;;;;;9.38;5.57;;;;;;;26.18;43.71;100319.53;5034006;28;20886;-70
2023/06/10 08:41:18;;;;;;;8.23;5.90;;;;;;;26.19;43.67;100320.34;5034329;28;20627;-68
2023/06/10 08:43:54;;;;;;;10.27;5.82;;;;;;;26.37;42.59;100322.75;5033945;28;20201;-68
2023/06/10 08:46:22;;;;;;;9.30;5.97;;;;;;;26.40;42.46;100322.22;5034866;28;20311;-69
2023/06/10 08:48:55;;;;;;;7.60;5.65;;;;;;;26.54;42.40;100320.75;5033896;28;20289;-69
2023/06/10 08:51:24;;;;;;;10.90;6.10;;;;;;;26.58;42.05;100310.19;5032583;28;20277;-71
2023/06/10 08:54:01;;;;;;;6.57;5.40;;;;;;;26.73;42.03;100314.97;5035841;28;20995;-71
2023/06/10 08:56:32;;;;;;;8.35;5.90;;;;;;;26.75;42.09;100313.59;5035978;28;20212;-71
2023/06/10 08:59:00;;;;;;;9.52;5.55;;;;;;;26.83;42.27;100317.75;5035750;28;20303;-72
2023/06/10 09:01:29;;;;;;;7.40;5.90;;;;;;;26.92;42.31;100314.31;5034535;28;20288;-72
2023/06/10 09:04:00;;;;;;;7.78;5.85;;;;;;;27.01;42.62;100306.50;5036275;28;20287;-69
2023/06/10 09:06:28;;;;;;;9.95;6.10;;;;;;;27.09;42.88;100308.75;5033403;28;20201;-69
2023/06/10 09:08:56;;;;;;;7.32;5.18;;;;;;;27.19;43.26;100308.00;5035129;28;20235;-68
2023/06/10 09:11:24;;;;;;;11.65;5.85;;;;;;;27.28;41.99;100303.72;5035899;28;20204;-67
2023/06/10 09:13:52;;;;;;;11.35;6.32;;;;;;;27.29;42.11;100305.34;5033425;28;20216;-69
2023/06/10 09:16:20;;;;;;;6.97;5.60;;;;;;;27.41;42.26;100306.00;5036002;28;20863;-68
2023/06/10 09:18:54;;;;;;;8.50;5.45;;;;;;;27.48;42.66;100311.19;5035057;28;20623;-69
2023/06/10 09:21:24;;;;;;;8.80;6.38;;;;;;;27.51;41.54;100295.16;5036243;28;20204;-69
2023/06/10 09:23:53;;;;;;;11.75;6.50;;;;;;;27.62;41.46;100304.22;5039583;28;20232;-69
2023/06/10 09:26:21;;;;;;;9.05;6.28;;;;;;;27.75;41.70;100306.47;5034622;28;20212;-68
2023/06/10 09:28:49;;;;;;;7.78;6.15;;;;;;;27.74;42.58;100307.56;5035676;28;20274;-70
2023/06/10 09:31:18;;;;;;;7.78;6.80;;;;;;;27.83;41.84;100305.97;5038872;28;20730;-70
2023/06/10 09:33:47;;;;;;;11.23;7.00;;;;;;;27.93;41.81;100300.56;5035336;28;20231;-70
2023/06/10 09:36:23;;;;;;;9.18;6.78;;;;;;;28.04;41.01;100299.53;5035256;28;20212;-70
2023/06/10 09:38:52;;;;;;;11.25;6.90;;;;;;;28.08;40.84;100300.63;5038929;28;20303;-72
2023/06/10 09:41:19;;;;;;;14.30;6.72;;;;;;;28.19;40.63;100297.97;5037771;28;20615;-72
2023/06/10 09:43:48;;;;;;;9.60;6.97;;;;;;;28.21;39.82;100298.53;5038351;28;20204;-71
2023/06/10 09:46:17;;;;;;;8.10;6.45;;;;;;;28.32;40.11;100290.06;5039645;28;20200;-70
2023/06/10 09:48:46;;;;;;;12.18;6.88;;;;;;;28.40;39.91;100292.31;5035271;28;20211;-70
2023/06/10 09:51:16;;;;;;;13.57;6.75;;;;;;;28.49;39.83;100278.94;5032054;28;20235;-72
2023/06/10 09:53:49;;;;;;;8.63;6.68;;;;;;;28.57;39.29;100264.78;5035519;28;20203;-69
2023/06/10 09:56:17;;;;;;;10.43;6.47;;;;;;;28.61;40.37;100270.50;5033812;28;20655;-68
2023/06/10 09:58:46;;;;;;;10.15;6.63;;;;;;;28.66;40.63;100268.59;5033917;28;20659;-70
2023/06/10 10:01:16;;;;;;;9.48;6.25;;;;;;;28.73;40.50;100258.22;5035470;28;20212;-68
2023/06/10 10:03:47;;;;;;;8.77;6.78;;;;;;;28.76;40.15;100263.16;5034825;28;20203;-69
2023/06/10 10:06:16;;;;;;;8.63;5.97;;;;;;;28.89;39.76;100255.53;5031102;28;20208;-70
2023/06/10 10:08:47;;;;;;;7.22;6.50;;;;;;;28.99;38.91;100252.78;5032415;28;20217;-68
2023/06/10 10:11:17;;;;;;;11.35;7.03;;;;;;;29.04;38.89;100258.22;5035603;28;20274;-68
2023/06/10 10:13:46;;;;;;;12.70;6.00;;;;;;;29.00;39.75;100246.25;5036767;28;21061;-68
2023/06/10 10:16:17;;;;;;;6.93;5.43;;;;;;;28.95;38.04;100249.78;5035248;28;20215;-68
2023/06/10 10:18:50;;;;;;;9.35;5.40;;;;;;;28.95;37.51;100248.97;5031973;28;20205;-69
2023/06/10 10:21:22;;;;;;;7.80;5.10;;;;;;;29.22;36.58;100254.09;5033441;28;20212;-68
2023/06/10 10:23:58;;;;;;;6.88;4.88;;;;;;;29.36;36.19;100250.56;5031425;28;20236;-68
2023/06/10 10:26:27;;;;;;;7.28;5.40;;;;;;;29.44;35.95;100254.63;5034689;28;20440;-68
2023/06/10 10:29:06;;;;;;;9.52;5.65;;;;;;;29.61;34.62;100248.84;5034497;28;20315;-69
2023/06/10 10:31:36;;;;;;;6.72;5.40;;;;;;;29.66;35.58;100246.09;5033193;28;20223;-69
2023/06/10 10:34:08;;;;;;;9.48;5.35;;;;;;;29.69;35.93;100242.81;5035268;28;20208;-69
2023/06/10 10:36:37;;;;;;;7.32;4.88;;;;;;;29.75;35.31;100244.41;5035017;28;20208;-69
2023/06/10 10:39:07;;;;;;;7.75;5.13;;;;;;;29.88;35.13;100241.91;5033664;28;20205;-68
2023/06/10 10:41:37;;;;;;;5.45;4.93;;;;;;;29.93;34.74;100241.03;5034039;28;20214;-68
2023/06/10 10:44:08;;;;;;;6.80;4.70;;;;;;;29.91;35.16;100241.31;5033255;28;20623;-67
2023/06/10 10:46:44;;;;;;;7.18;4.65;;;;;;;30.02;35.33;100246.75;5032879;28;20613;-69
2023/06/10 10:49:14;;;;;;;9.25;4.78;;;;;;;30.02;35.23;100236.66;5033217;28;20783;-68
2023/06/10 10:51:56;;;;;;;6.75;4.65;;;;;;;29.96;34.35;100235.06;5032183;28;20766;-68
2023/06/10 10:54:32;;;;;;;7.47;4.18;;;;;;;29.81;34.86;100238.66;5035279;28;20657;-69
2023/06/10 10:57:17;;;;;;;8.00;5.05;;;;;;;29.89;34.73;100237.25;5036505;28;20222;-68
2023/06/10 10:59:59;;;;;;;6.28;4.13;;;;;;;30.09;34.74;100233.59;5035110;28;20255;-68
2023/06/10 11:02:38;;;;;;;6.45;4.63;;;;;;;30.15;34.43;100237.94;5033625;28;20212;-68
2023/06/10 11:05:08;;;;;;;6.45;4.90;;;;;;;30.30;34.73;100229.63;5032273;28;20208;-67
2023/06/10 11:07:37;;;;;;;6.25;4.10;;;;;;;30.41;34.96;100227.66;5036222;28;20207;-66
2023/06/10 11:10:09;;;;;;;6.80;4.65;;;;;;;30.28;34.27;100227.19;5035706;28;20697;-71
2023/06/10 11:12:58;;;;;;;8.82;4.95;;;;;;;30.53;33.87;100234.41;5037235;28;20793;-68
2023/06/10 11:15:28;;;;;;;5.68;4.55;;;;;;;30.36;33.32;100227.66;5032648;28;20208;-68
2023/06/10 11:18:23;;;;;;;6.68;4.88;;;;;;;30.61;33.36;100225.59;5035931;28;20243;-69
2023/06/10 11:20:57;;;;;;;4.97;4.47;;;;;;;30.81;33.14;100227.34;4992675;28;20729;-68
2023/06/10 11:23:39;;;;;;;7.90;4.45;;;;;;;30.84;32.25;100217.75;5039373;28;20242;-70
2023/06/10 11:26:32;;;;;;;10.10;5.45;;;;;;;30.60;32.59;100220.44;5037463;28;20685;-68
2023/06/10 11:29:11;;;;;;;10.55;4.90;;;;;;;30.55;33.04;100217.72;5035014;28;20248;-69